< < Back
Terminal Aerodrome Forecast


Current Version              Previous Versions:   1  2  3  4  5  6  7  8  9  

Terminal Aerodrome Forecast

391
FTUS42 KTAE 121004 AAA
TAFABY
TAF AMD
KABY 121004Z 1210/1306 22005KT P6SM BKN020
     FM121600 27012G22KT P6SM SCT025=



Latest METAR

680
SAUS70 KWBC 122000 RRH
MTRABY
METAR KABY 121953Z 27013KT 10SM SCT038 BKN047 22/11 A3009 RMK AO2 SLP188
T02170111


USA.gov is the U.S. government's official web portal to all federal, state and local government web resources and services.